sensor_id;sensor_type;location;lat;lon;timestamp;P1;durP1;ratioP1;P2;durP2;ratioP2
22754;SDS011;11544;42.020;23.094;2023-05-19T00:21:52;9.50;;;4.40;;
22754;SDS011;11544;42.020;23.094;2023-05-19T00:24:39;8.73;;;4.18;;
22754;SDS011;11544;42.020;23.094;2023-05-19T00:27:50;7.38;;;3.88;;
22754;SDS011;11544;42.020;23.094;2023-05-19T00:30:22;6.30;;;4.20;;
22754;SDS011;11544;42.020;23.094;2023-05-19T00:32:50;6.35;;;3.78;;
22754;SDS011;11544;42.020;23.094;2023-05-19T00:35:17;6.97;;;3.70;;
22754;SDS011;11544;42.020;23.094;2023-05-19T00:41:36;6.57;;;3.67;;
22754;SDS011;11544;42.020;23.094;2023-05-19T00:44:33;6.30;;;3.90;;
22754;SDS011;11544;42.020;23.094;2023-05-19T00:47:49;6.97;;;3.67;;
22754;SDS011;11544;42.020;23.094;2023-05-19T00:54:32;4.15;;;2.95;;
22754;SDS011;11544;42.020;23.094;2023-05-19T00:56:59;7.55;;;2.75;;
22754;SDS011;11544;42.020;23.094;2023-05-19T00:59:29;6.20;;;3.30;;
22754;SDS011;11544;42.020;23.094;2023-05-19T01:13:23;4.05;;;2.60;;
22754;SDS011;11544;42.020;23.094;2023-05-19T01:16:44;4.72;;;2.88;;
22754;SDS011;11544;42.020;23.094;2023-05-19T01:20:24;4.20;;;2.40;;
22754;SDS011;11544;42.020;23.094;2023-05-19T01:23:26;5.80;;;2.90;;
22754;SDS011;11544;42.020;23.094;2023-05-19T01:33:29;5.32;;;2.45;;
22754;SDS011;11544;42.020;23.094;2023-05-19T01:36:41;5.68;;;2.97;;
22754;SDS011;11544;42.020;23.094;2023-05-19T01:39:38;4.05;;;2.90;;
22754;SDS011;11544;42.020;23.094;2023-05-19T01:42:46;5.03;;;2.70;;
22754;SDS011;11544;42.020;23.094;2023-05-19T01:45:54;4.32;;;2.75;;
22754;SDS011;11544;42.020;23.094;2023-05-19T01:48:36;8.02;;;3.00;;
22754;SDS011;11544;42.020;23.094;2023-05-19T01:51:07;5.45;;;3.03;;
22754;SDS011;11544;42.020;23.094;2023-05-19T01:53:34;6.63;;;3.08;;
22754;SDS011;11544;42.020;23.094;2023-05-19T01:56:03;5.00;;;3.20;;
22754;SDS011;11544;42.020;23.094;2023-05-19T01:58:44;5.85;;;3.50;;
22754;SDS011;11544;42.020;23.094;2023-05-19T02:03:54;3.88;;;3.20;;
22754;SDS011;11544;42.020;23.094;2023-05-19T02:06:50;6.63;;;2.90;;
22754;SDS011;11544;42.020;23.094;2023-05-19T02:09:53;5.88;;;2.97;;
22754;SDS011;11544;42.020;23.094;2023-05-19T02:12:35;4.75;;;3.15;;
22754;SDS011;11544;42.020;23.094;2023-05-19T02:15:17;3.63;;;2.83;;
22754;SDS011;11544;42.020;23.094;2023-05-19T02:21:21;4.50;;;2.53;;
22754;SDS011;11544;42.020;23.094;2023-05-19T02:24:06;4.57;;;3.10;;
22754;SDS011;11544;42.020;23.094;2023-05-19T02:30:45;3.72;;;2.60;;
22754;SDS011;11544;42.020;23.094;2023-05-19T02:33:50;4.10;;;2.95;;
22754;SDS011;11544;42.020;23.094;2023-05-19T02:36:23;3.90;;;2.47;;
22754;SDS011;11544;42.020;23.094;2023-05-19T02:40:05;4.68;;;2.80;;
22754;SDS011;11544;42.020;23.094;2023-05-19T02:43:07;8.82;;;2.70;;
22754;SDS011;11544;42.020;23.094;2023-05-19T02:45:34;3.42;;;2.92;;
22754;SDS011;11544;42.020;23.094;2023-05-19T02:48:01;7.95;;;3.40;;
22754;SDS011;11544;42.020;23.094;2023-05-19T02:50:29;4.40;;;3.03;;
22754;SDS011;11544;42.020;23.094;2023-05-19T02:52:59;4.75;;;3.35;;
22754;SDS011;11544;42.020;23.094;2023-05-19T02:55:27;3.97;;;2.83;;
22754;SDS011;11544;42.020;23.094;2023-05-19T02:57:55;4.20;;;2.70;;
22754;SDS011;11544;42.020;23.094;2023-05-19T03:00:31;5.70;;;3.35;;
22754;SDS011;11544;42.020;23.094;2023-05-19T03:03:08;8.77;;;2.72;;
22754;SDS011;11544;42.020;23.094;2023-05-19T03:06:07;4.35;;;3.35;;
22754;SDS011;11544;42.020;23.094;2023-05-19T03:13:00;4.95;;;3.03;;
22754;SDS011;11544;42.020;23.094;2023-05-19T03:16:50;7.03;;;3.40;;
22754;SDS011;11544;42.020;23.094;2023-05-19T03:35:00;5.38;;;2.90;;
22754;SDS011;11544;42.020;23.094;2023-05-19T03:37:30;6.75;;;3.63;;
22754;SDS011;11544;42.020;23.094;2023-05-19T03:40:07;6.90;;;3.75;;
22754;SDS011;11544;42.020;23.094;2023-05-19T03:42:58;5.05;;;3.63;;
22754;SDS011;11544;42.020;23.094;2023-05-19T03:45:35;6.47;;;3.70;;
22754;SDS011;11544;42.020;23.094;2023-05-19T03:48:22;7.40;;;4.13;;
22754;SDS011;11544;42.020;23.094;2023-05-19T03:54:24;8.52;;;3.85;;
22754;SDS011;11544;42.020;23.094;2023-05-19T04:47:57;9.23;;;3.75;;
22754;SDS011;11544;42.020;23.094;2023-05-19T04:50:24;5.55;;;4.10;;
22754;SDS011;11544;42.020;23.094;2023-05-19T04:52:51;7.10;;;3.80;;
22754;SDS011;11544;42.020;23.094;2023-05-19T04:55:50;6.10;;;3.95;;
22754;SDS011;11544;42.020;23.094;2023-05-19T04:58:19;7.47;;;3.80;;
22754;SDS011;11544;42.020;23.094;2023-05-19T05:01:22;8.48;;;4.53;;
22754;SDS011;11544;42.020;23.094;2023-05-19T05:03:52;8.15;;;4.45;;
22754;SDS011;11544;42.020;23.094;2023-05-19T05:15:50;10.02;;;4.05;;
22754;SDS011;11544;42.020;23.094;2023-05-19T05:18:20;6.13;;;4.05;;
22754;SDS011;11544;42.020;23.094;2023-05-19T05:20:47;4.75;;;3.55;;
22754;SDS011;11544;42.020;23.094;2023-05-19T05:23:14;4.50;;;3.35;;
22754;SDS011;11544;42.020;23.094;2023-05-19T05:25:42;4.90;;;3.58;;
22754;SDS011;11544;42.020;23.094;2023-05-19T05:28:09;9.93;;;4.65;;
22754;SDS011;11544;42.020;23.094;2023-05-19T05:30:37;6.10;;;3.70;;
22754;SDS011;11544;42.020;23.094;2023-05-19T05:33:04;6.20;;;3.28;;
22754;SDS011;11544;42.020;23.094;2023-05-19T05:35:31;6.97;;;4.13;;
22754;SDS011;11544;42.020;23.094;2023-05-19T05:37:59;5.38;;;3.50;;
22754;SDS011;11544;42.020;23.094;2023-05-19T05:40:27;7.75;;;3.55;;
22754;SDS011;11544;42.020;23.094;2023-05-19T05:42:55;9.38;;;3.35;;
22754;SDS011;11544;42.020;23.094;2023-05-19T05:45:22;6.22;;;3.50;;
22754;SDS011;11544;42.020;23.094;2023-05-19T05:47:49;5.55;;;3.58;;
22754;SDS011;11544;42.020;23.094;2023-05-19T05:50:17;11.15;;;4.38;;
22754;SDS011;11544;42.020;23.094;2023-05-19T05:52:47;5.60;;;3.85;;
22754;SDS011;11544;42.020;23.094;2023-05-19T05:55:15;5.97;;;3.90;;
22754;SDS011;11544;42.020;23.094;2023-05-19T05:57:45;10.75;;;4.38;;
22754;SDS011;11544;42.020;23.094;2023-05-19T06:00:14;11.18;;;4.70;;
22754;SDS011;11544;42.020;23.094;2023-05-19T06:02:44;9.15;;;4.55;;
22754;SDS011;11544;42.020;23.094;2023-05-19T06:05:12;6.25;;;3.90;;
22754;SDS011;11544;42.020;23.094;2023-05-19T06:07:40;11.85;;;4.20;;
22754;SDS011;11544;42.020;23.094;2023-05-19T06:10:07;7.93;;;4.32;;
22754;SDS011;11544;42.020;23.094;2023-05-19T06:12:35;5.53;;;4.13;;
22754;SDS011;11544;42.020;23.094;2023-05-19T06:15:06;9.27;;;5.43;;
22754;SDS011;11544;42.020;23.094;2023-05-19T06:17:33;6.50;;;3.70;;
22754;SDS011;11544;42.020;23.094;2023-05-19T06:20:01;8.45;;;4.78;;
22754;SDS011;11544;42.020;23.094;2023-05-19T06:22:31;11.00;;;5.38;;
22754;SDS011;11544;42.020;23.094;2023-05-19T06:24:57;10.82;;;4.80;;
22754;SDS011;11544;42.020;23.094;2023-05-19T06:27:24;7.95;;;5.32;;
22754;SDS011;11544;42.020;23.094;2023-05-19T06:29:51;7.15;;;4.72;;
22754;SDS011;11544;42.020;23.094;2023-05-19T06:32:19;8.25;;;5.22;;
22754;SDS011;11544;42.020;23.094;2023-05-19T06:34:46;5.95;;;4.28;;
22754;SDS011;11544;42.020;23.094;2023-05-19T06:37:20;7.82;;;4.40;;
22754;SDS011;11544;42.020;23.094;2023-05-19T06:39:48;10.27;;;4.30;;
22754;SDS011;11544;42.020;23.094;2023-05-19T06:42:19;10.95;;;4.53;;
22754;SDS011;11544;42.020;23.094;2023-05-19T06:44:48;6.70;;;3.80;;
22754;SDS011;11544;42.020;23.094;2023-05-19T06:47:18;5.32;;;4.15;;
22754;SDS011;11544;42.020;23.094;2023-05-19T06:49:46;6.05;;;4.30;;
22754;SDS011;11544;42.020;23.094;2023-05-19T06:52:17;6.50;;;4.30;;
22754;SDS011;11544;42.020;23.094;2023-05-19T06:57:30;5.93;;;4.00;;
22754;SDS011;11544;42.020;23.094;2023-05-19T06:59:57;9.73;;;4.47;;
22754;SDS011;11544;42.020;23.094;2023-05-19T07:02:24;6.40;;;4.18;;
22754;SDS011;11544;42.020;23.094;2023-05-19T07:04:50;6.18;;;4.43;;
22754;SDS011;11544;42.020;23.094;2023-05-19T07:07:19;7.88;;;4.40;;
22754;SDS011;11544;42.020;23.094;2023-05-19T07:09:46;5.72;;;3.90;;
22754;SDS011;11544;42.020;23.094;2023-05-19T07:12:13;11.13;;;5.55;;
22754;SDS011;11544;42.020;23.094;2023-05-19T07:14:40;6.80;;;4.75;;
22754;SDS011;11544;42.020;23.094;2023-05-19T07:17:07;7.13;;;4.57;;
22754;SDS011;11544;42.020;23.094;2023-05-19T07:19:34;6.88;;;4.60;;
22754;SDS011;11544;42.020;23.094;2023-05-19T07:22:01;10.82;;;4.78;;
22754;SDS011;11544;42.020;23.094;2023-05-19T07:24:28;8.07;;;4.75;;
22754;SDS011;11544;42.020;23.094;2023-05-19T07:26:56;9.43;;;4.70;;
22754;SDS011;11544;42.020;23.094;2023-05-19T07:29:23;5.53;;;4.25;;
22754;SDS011;11544;42.020;23.094;2023-05-19T07:31:51;4.65;;;3.78;;
22754;SDS011;11544;42.020;23.094;2023-05-19T07:34:23;6.53;;;4.45;;
22754;SDS011;11544;42.020;23.094;2023-05-19T07:36:50;5.72;;;4.13;;
22754;SDS011;11544;42.020;23.094;2023-05-19T07:39:17;7.72;;;4.28;;
22754;SDS011;11544;42.020;23.094;2023-05-19T07:41:44;5.35;;;4.60;;
22754;SDS011;11544;42.020;23.094;2023-05-19T07:44:18;5.60;;;4.15;;
22754;SDS011;11544;42.020;23.094;2023-05-19T07:46:50;9.02;;;4.55;;
22754;SDS011;11544;42.020;23.094;2023-05-19T07:49:21;6.78;;;4.32;;
22754;SDS011;11544;42.020;23.094;2023-05-19T07:51:48;11.43;;;5.22;;
22754;SDS011;11544;42.020;23.094;2023-05-19T07:54:18;10.07;;;5.43;;
22754;SDS011;11544;42.020;23.094;2023-05-19T07:56:46;9.68;;;5.60;;
22754;SDS011;11544;42.020;23.094;2023-05-19T07:59:14;14.43;;;5.63;;
22754;SDS011;11544;42.020;23.094;2023-05-19T08:01:40;9.38;;;4.85;;
22754;SDS011;11544;42.020;23.094;2023-05-19T08:04:08;6.47;;;4.22;;
22754;SDS011;11544;42.020;23.094;2023-05-19T08:06:38;11.52;;;5.47;;
22754;SDS011;11544;42.020;23.094;2023-05-19T08:09:05;9.32;;;5.78;;
22754;SDS011;11544;42.020;23.094;2023-05-19T08:11:32;11.93;;;5.88;;
22754;SDS011;11544;42.020;23.094;2023-05-19T08:14:03;8.85;;;5.30;;
22754;SDS011;11544;42.020;23.094;2023-05-19T08:16:30;6.57;;;5.40;;
22754;SDS011;11544;42.020;23.094;2023-05-19T08:18:57;10.32;;;5.45;;
22754;SDS011;11544;42.020;23.094;2023-05-19T08:21:30;6.68;;;4.50;;
22754;SDS011;11544;42.020;23.094;2023-05-19T08:24:00;10.15;;;6.80;;
22754;SDS011;11544;42.020;23.094;2023-05-19T08:26:27;9.07;;;5.80;;
22754;SDS011;11544;42.020;23.094;2023-05-19T08:28:54;11.38;;;6.43;;
22754;SDS011;11544;42.020;23.094;2023-05-19T08:31:21;10.32;;;5.75;;
22754;SDS011;11544;42.020;23.094;2023-05-19T08:33:48;8.75;;;5.70;;
22754;SDS011;11544;42.020;23.094;2023-05-19T08:36:16;10.20;;;5.50;;
22754;SDS011;11544;42.020;23.094;2023-05-19T08:38:44;8.82;;;5.75;;
22754;SDS011;11544;42.020;23.094;2023-05-19T08:41:10;7.60;;;5.35;;
22754;SDS011;11544;42.020;23.094;2023-05-19T08:43:37;7.68;;;5.07;;
22754;SDS011;11544;42.020;23.094;2023-05-19T08:46:05;13.95;;;6.53;;
22754;SDS011;11544;42.020;23.094;2023-05-19T08:48:33;8.73;;;5.90;;
22754;SDS011;11544;42.020;23.094;2023-05-19T08:51:13;9.10;;;5.50;;
22754;SDS011;11544;42.020;23.094;2023-05-19T08:53:55;12.93;;;5.55;;
22754;SDS011;11544;42.020;23.094;2023-05-19T08:56:27;12.98;;;6.05;;
22754;SDS011;11544;42.020;23.094;2023-05-19T08:58:56;10.43;;;6.55;;
22754;SDS011;11544;42.020;23.094;2023-05-19T09:01:26;6.93;;;5.97;;
22754;SDS011;11544;42.020;23.094;2023-05-19T09:03:57;7.25;;;5.85;;
22754;SDS011;11544;42.020;23.094;2023-05-19T09:06:25;11.13;;;6.00;;
22754;SDS011;11544;42.020;23.094;2023-05-19T09:08:52;15.00;;;5.85;;
22754;SDS011;11544;42.020;23.094;2023-05-19T09:11:19;11.52;;;7.53;;
22754;SDS011;11544;42.020;23.094;2023-05-19T09:13:48;9.60;;;5.60;;
22754;SDS011;11544;42.020;23.094;2023-05-19T09:16:15;8.07;;;6.22;;
22754;SDS011;11544;42.020;23.094;2023-05-19T09:18:54;10.90;;;6.00;;
22754;SDS011;11544;42.020;23.094;2023-05-19T09:21:29;9.23;;;6.05;;
22754;SDS011;11544;42.020;23.094;2023-05-19T09:24:06;6.47;;;5.28;;
22754;SDS011;11544;42.020;23.094;2023-05-19T09:29:17;9.50;;;6.25;;
22754;SDS011;11544;42.020;23.094;2023-05-19T09:31:51;9.55;;;6.10;;
22754;SDS011;11544;42.020;23.094;2023-05-19T09:34:21;9.10;;;6.65;;
22754;SDS011;11544;42.020;23.094;2023-05-19T09:36:54;8.55;;;5.85;;
22754;SDS011;11544;42.020;23.094;2023-05-19T09:39:37;8.60;;;6.05;;
22754;SDS011;11544;42.020;23.094;2023-05-19T09:42:04;7.20;;;5.13;;
22754;SDS011;11544;42.020;23.094;2023-05-19T09:45:20;7.20;;;5.40;;
22754;SDS011;11544;42.020;23.094;2023-05-19T09:47:48;8.35;;;5.60;;
22754;SDS011;11544;42.020;23.094;2023-05-19T09:50:17;9.48;;;6.10;;
22754;SDS011;11544;42.020;23.094;2023-05-19T09:52:49;10.70;;;5.78;;
22754;SDS011;11544;42.020;23.094;2023-05-19T09:55:18;10.20;;;5.88;;
22754;SDS011;11544;42.020;23.094;2023-05-19T09:57:48;6.40;;;5.35;;
22754;SDS011;11544;42.020;23.094;2023-05-19T10:00:17;7.03;;;5.90;;
22754;SDS011;11544;42.020;23.094;2023-05-19T10:27:16;7.15;;;5.68;;
22754;SDS011;11544;42.020;23.094;2023-05-19T10:29:46;9.38;;;5.75;;
22754;SDS011;11544;42.020;23.094;2023-05-19T10:32:20;11.98;;;7.05;;
22754;SDS011;11544;42.020;23.094;2023-05-19T10:35:01;7.53;;;5.72;;
22754;SDS011;11544;42.020;23.094;2023-05-19T10:40:35;7.95;;;6.05;;
22754;SDS011;11544;42.020;23.094;2023-05-19T10:46:25;9.55;;;6.55;;
22754;SDS011;11544;42.020;23.094;2023-05-19T10:49:17;7.65;;;6.20;;
22754;SDS011;11544;42.020;23.094;2023-05-19T10:51:55;8.98;;;6.00;;
22754;SDS011;11544;42.020;23.094;2023-05-19T10:54:37;6.45;;;5.55;;
22754;SDS011;11544;42.020;23.094;2023-05-19T10:57:12;8.85;;;5.45;;
22754;SDS011;11544;42.020;23.094;2023-05-19T10:59:40;10.30;;;6.10;;
22754;SDS011;11544;42.020;23.094;2023-05-19T11:02:11;8.02;;;6.13;;
22754;SDS011;11544;42.020;23.094;2023-05-19T11:05:09;7.72;;;5.40;;
22754;SDS011;11544;42.020;23.094;2023-05-19T11:07:40;8.15;;;5.90;;
22754;SDS011;11544;42.020;23.094;2023-05-19T11:10:47;8.35;;;5.95;;
22754;SDS011;11544;42.020;23.094;2023-05-19T11:13:25;9.90;;;5.68;;
22754;SDS011;11544;42.020;23.094;2023-05-19T11:15:54;9.23;;;6.00;;
22754;SDS011;11544;42.020;23.094;2023-05-19T11:18:22;7.10;;;5.32;;
22754;SDS011;11544;42.020;23.094;2023-05-19T11:20:55;9.65;;;6.22;;
22754;SDS011;11544;42.020;23.094;2023-05-19T11:23:39;8.52;;;5.97;;
22754;SDS011;11544;42.020;23.094;2023-05-19T11:26:15;7.68;;;5.72;;
22754;SDS011;11544;42.020;23.094;2023-05-19T11:29:09;7.13;;;5.72;;
22754;SDS011;11544;42.020;23.094;2023-05-19T11:31:52;9.13;;;5.70;;
22754;SDS011;11544;42.020;23.094;2023-05-19T11:34:20;7.97;;;5.88;;
22754;SDS011;11544;42.020;23.094;2023-05-19T11:37:00;7.70;;;5.60;;
22754;SDS011;11544;42.020;23.094;2023-05-19T11:40:04;7.10;;;5.63;;
22754;SDS011;11544;42.020;23.094;2023-05-19T11:42:39;11.18;;;6.15;;
22754;SDS011;11544;42.020;23.094;2023-05-19T11:45:10;8.52;;;5.80;;
22754;SDS011;11544;42.020;23.094;2023-05-19T11:47:40;7.63;;;6.05;;
22754;SDS011;11544;42.020;23.094;2023-05-19T11:50:27;8.02;;;5.97;;
22754;SDS011;11544;42.020;23.094;2023-05-19T11:52:54;9.73;;;6.18;;
22754;SDS011;11544;42.020;23.094;2023-05-19T11:55:22;7.45;;;6.00;;
22754;SDS011;11544;42.020;23.094;2023-05-19T11:57:57;8.68;;;6.10;;
22754;SDS011;11544;42.020;23.094;2023-05-19T12:00:27;9.07;;;6.57;;
22754;SDS011;11544;42.020;23.094;2023-05-19T12:02:56;9.10;;;6.00;;
22754;SDS011;11544;42.020;23.094;2023-05-19T12:05:24;8.75;;;6.28;;
22754;SDS011;11544;42.020;23.094;2023-05-19T12:07:52;8.55;;;5.85;;
22754;SDS011;11544;42.020;23.094;2023-05-19T12:10:23;9.98;;;6.35;;
22754;SDS011;11544;42.020;23.094;2023-05-19T12:12:52;8.80;;;6.22;;
22754;SDS011;11544;42.020;23.094;2023-05-19T12:15:23;8.65;;;6.03;;
22754;SDS011;11544;42.020;23.094;2023-05-19T12:20:25;7.65;;;6.05;;
22754;SDS011;11544;42.020;23.094;2023-05-19T12:22:57;8.23;;;5.88;;
22754;SDS011;11544;42.020;23.094;2023-05-19T12:25:29;7.60;;;5.75;;
22754;SDS011;11544;42.020;23.094;2023-05-19T12:28:01;7.18;;;6.07;;
22754;SDS011;11544;42.020;23.094;2023-05-19T12:30:29;7.82;;;5.78;;
22754;SDS011;11544;42.020;23.094;2023-05-19T12:32:58;9.32;;;5.65;;
22754;SDS011;11544;42.020;23.094;2023-05-19T12:35:36;7.30;;;5.18;;
22754;SDS011;11544;42.020;23.094;2023-05-19T12:39:03;8.55;;;5.18;;
22754;SDS011;11544;42.020;23.094;2023-05-19T12:41:43;7.07;;;5.45;;
22754;SDS011;11544;42.020;23.094;2023-05-19T12:44:14;8.32;;;5.25;;
22754;SDS011;11544;42.020;23.094;2023-05-19T12:47:04;9.10;;;5.53;;
22754;SDS011;11544;42.020;23.094;2023-05-19T12:49:36;7.75;;;6.20;;
22754;SDS011;11544;42.020;23.094;2023-05-19T12:52:52;8.30;;;5.57;;
22754;SDS011;11544;42.020;23.094;2023-05-19T12:55:54;8.45;;;5.18;;
22754;SDS011;11544;42.020;23.094;2023-05-19T12:58:25;6.03;;;5.40;;
22754;SDS011;11544;42.020;23.094;2023-05-19T13:00:57;6.57;;;4.97;;
22754;SDS011;11544;42.020;23.094;2023-05-19T13:03:31;8.35;;;4.82;;
22754;SDS011;11544;42.020;23.094;2023-05-19T13:06:06;6.38;;;4.47;;
22754;SDS011;11544;42.020;23.094;2023-05-19T13:15:23;8.05;;;4.93;;
22754;SDS011;11544;42.020;23.094;2023-05-19T13:21:24;7.55;;;4.93;;
22754;SDS011;11544;42.020;23.094;2023-05-19T13:23:52;6.25;;;5.22;;
22754;SDS011;11544;42.020;23.094;2023-05-19T13:26:28;9.88;;;5.90;;
22754;SDS011;11544;42.020;23.094;2023-05-19T13:28:57;8.35;;;5.10;;
22754;SDS011;11544;42.020;23.094;2023-05-19T13:31:25;9.45;;;5.85;;
22754;SDS011;11544;42.020;23.094;2023-05-19T13:33:57;7.90;;;6.50;;
22754;SDS011;11544;42.020;23.094;2023-05-19T13:39:23;7.47;;;5.18;;
22754;SDS011;11544;42.020;23.094;2023-05-19T13:41:53;9.00;;;5.20;;
22754;SDS011;11544;42.020;23.094;2023-05-19T13:44:22;8.60;;;5.47;;
22754;SDS011;11544;42.020;23.094;2023-05-19T13:46:56;10.68;;;5.95;;
22754;SDS011;11544;42.020;23.094;2023-05-19T13:49:31;6.40;;;5.47;;
22754;SDS011;11544;42.020;23.094;2023-05-19T13:51:58;6.63;;;4.95;;
22754;SDS011;11544;42.020;23.094;2023-05-19T13:54:38;5.78;;;5.03;;
22754;SDS011;11544;42.020;23.094;2023-05-19T13:57:19;9.27;;;5.85;;
22754;SDS011;11544;42.020;23.094;2023-05-19T13:59:52;10.27;;;5.90;;
22754;SDS011;11544;42.020;23.094;2023-05-19T14:02:41;8.30;;;6.00;;
22754;SDS011;11544;42.020;23.094;2023-05-19T14:05:11;14.95;;;6.15;;
22754;SDS011;11544;42.020;23.094;2023-05-19T14:07:51;6.70;;;5.57;;
22754;SDS011;11544;42.020;23.094;2023-05-19T14:10:18;8.80;;;5.85;;
22754;SDS011;11544;42.020;23.094;2023-05-19T14:12:48;10.80;;;6.55;;
22754;SDS011;11544;42.020;23.094;2023-05-19T14:15:28;9.10;;;6.70;;
22754;SDS011;11544;42.020;23.094;2023-05-19T14:17:57;11.20;;;6.22;;
22754;SDS011;11544;42.020;23.094;2023-05-19T14:20:37;10.07;;;6.40;;
22754;SDS011;11544;42.020;23.094;2023-05-19T14:23:15;13.07;;;6.43;;
22754;SDS011;11544;42.020;23.094;2023-05-19T14:25:53;10.52;;;6.82;;
22754;SDS011;11544;42.020;23.094;2023-05-19T14:28:20;11.73;;;7.07;;
22754;SDS011;11544;42.020;23.094;2023-05-19T14:30:49;9.05;;;6.85;;
22754;SDS011;11544;42.020;23.094;2023-05-19T14:33:20;10.63;;;7.82;;
22754;SDS011;11544;42.020;23.094;2023-05-19T14:35:48;11.00;;;6.88;;
22754;SDS011;11544;42.020;23.094;2023-05-19T14:38:15;11.70;;;6.47;;
22754;SDS011;11544;42.020;23.094;2023-05-19T14:40:44;11.75;;;7.00;;
22754;SDS011;11544;42.020;23.094;2023-05-19T14:43:19;7.40;;;6.40;;
22754;SDS011;11544;42.020;23.094;2023-05-19T14:45:47;8.65;;;6.10;;
22754;SDS011;11544;42.020;23.094;2023-05-19T15:18:50;8.68;;;6.13;;
22754;SDS011;11544;42.020;23.094;2023-05-19T16:41:49;10.43;;;6.55;;
22754;SDS011;11544;42.020;23.094;2023-05-19T16:44:19;10.40;;;6.32;;
22754;SDS011;11544;42.020;23.094;2023-05-19T16:46:55;8.23;;;6.03;;
22754;SDS011;11544;42.020;23.094;2023-05-19T16:49:22;7.80;;;6.15;;
22754;SDS011;11544;42.020;23.094;2023-05-19T16:51:49;9.20;;;5.90;;
22754;SDS011;11544;42.020;23.094;2023-05-19T16:54:18;11.85;;;6.28;;
22754;SDS011;11544;42.020;23.094;2023-05-19T16:56:46;8.10;;;5.90;;
22754;SDS011;11544;42.020;23.094;2023-05-19T16:59:13;11.07;;;6.65;;
22754;SDS011;11544;42.020;23.094;2023-05-19T17:01:40;10.70;;;6.70;;
22754;SDS011;11544;42.020;23.094;2023-05-19T17:04:07;11.10;;;6.57;;
22754;SDS011;11544;42.020;23.094;2023-05-19T17:06:37;8.27;;;6.25;;
22754;SDS011;11544;42.020;23.094;2023-05-19T17:09:04;7.75;;;6.50;;
22754;SDS011;11544;42.020;23.094;2023-05-19T17:11:31;9.43;;;6.75;;
22754;SDS011;11544;42.020;23.094;2023-05-19T17:13:59;10.18;;;7.00;;
22754;SDS011;11544;42.020;23.094;2023-05-19T17:16:27;10.02;;;6.40;;
22754;SDS011;11544;42.020;23.094;2023-05-19T17:18:54;9.05;;;6.30;;
22754;SDS011;11544;42.020;23.094;2023-05-19T17:21:21;10.88;;;6.55;;
22754;SDS011;11544;42.020;23.094;2023-05-19T17:23:50;7.13;;;6.15;;
22754;SDS011;11544;42.020;23.094;2023-05-19T17:26:21;9.20;;;6.55;;
22754;SDS011;11544;42.020;23.094;2023-05-19T17:28:48;8.13;;;6.57;;
22754;SDS011;11544;42.020;23.094;2023-05-19T17:31:18;9.35;;;7.20;;
22754;SDS011;11544;42.020;23.094;2023-05-19T17:33:45;11.45;;;7.57;;
22754;SDS011;11544;42.020;23.094;2023-05-19T17:36:12;11.05;;;6.40;;
22754;SDS011;11544;42.020;23.094;2023-05-19T17:38:39;9.70;;;6.95;;
22754;SDS011;11544;42.020;23.094;2023-05-19T17:41:07;9.13;;;6.93;;
22754;SDS011;11544;42.020;23.094;2023-05-19T17:43:39;9.48;;;7.50;;
22754;SDS011;11544;42.020;23.094;2023-05-19T17:46:07;9.05;;;6.95;;
22754;SDS011;11544;42.020;23.094;2023-05-19T17:48:34;16.27;;;7.57;;
22754;SDS011;11544;42.020;23.094;2023-05-19T17:51:05;15.07;;;7.60;;
22754;SDS011;11544;42.020;23.094;2023-05-19T17:53:34;12.90;;;7.82;;
22754;SDS011;11544;42.020;23.094;2023-05-19T17:56:02;12.32;;;7.82;;
22754;SDS011;11544;42.020;23.094;2023-05-19T17:58:33;12.60;;;8.20;;
22754;SDS011;11544;42.020;23.094;2023-05-19T18:01:03;10.15;;;7.78;;
22754;SDS011;11544;42.020;23.094;2023-05-19T18:03:34;9.20;;;7.55;;
22754;SDS011;11544;42.020;23.094;2023-05-19T18:06:35;12.18;;;7.60;;
22754;SDS011;11544;42.020;23.094;2023-05-19T18:09:03;14.50;;;7.65;;
22754;SDS011;11544;42.020;23.094;2023-05-19T18:11:35;12.15;;;7.93;;
22754;SDS011;11544;42.020;23.094;2023-05-19T18:14:02;12.57;;;8.27;;
22754;SDS011;11544;42.020;23.094;2023-05-19T18:16:30;11.93;;;8.38;;
22754;SDS011;11544;42.020;23.094;2023-05-19T18:19:07;13.48;;;8.13;;
22754;SDS011;11544;42.020;23.094;2023-05-19T18:21:40;14.80;;;8.15;;
22754;SDS011;11544;42.020;23.094;2023-05-19T18:24:09;10.98;;;7.57;;
22754;SDS011;11544;42.020;23.094;2023-05-19T18:26:41;12.73;;;7.32;;
22754;SDS011;11544;42.020;23.094;2023-05-19T18:29:09;12.95;;;7.28;;
22754;SDS011;11544;42.020;23.094;2023-05-19T18:31:38;11.50;;;7.80;;
22754;SDS011;11544;42.020;23.094;2023-05-19T18:34:08;11.57;;;7.43;;
22754;SDS011;11544;42.020;23.094;2023-05-19T18:36:35;11.45;;;7.22;;
22754;SDS011;11544;42.020;23.094;2023-05-19T18:39:02;10.32;;;7.05;;
22754;SDS011;11544;42.020;23.094;2023-05-19T18:41:30;11.40;;;7.47;;
22754;SDS011;11544;42.020;23.094;2023-05-19T18:43:57;11.02;;;7.78;;
22754;SDS011;11544;42.020;23.094;2023-05-19T18:46:24;10.50;;;7.68;;
22754;SDS011;11544;42.020;23.094;2023-05-19T18:48:51;11.20;;;7.55;;
22754;SDS011;11544;42.020;23.094;2023-05-19T18:51:19;10.52;;;7.97;;
22754;SDS011;11544;42.020;23.094;2023-05-19T18:53:47;10.73;;;7.70;;
22754;SDS011;11544;42.020;23.094;2023-05-19T18:56:21;14.25;;;8.48;;
22754;SDS011;11544;42.020;23.094;2023-05-19T18:58:52;13.35;;;8.60;;
22754;SDS011;11544;42.020;23.094;2023-05-19T19:01:20;11.43;;;7.90;;
22754;SDS011;11544;42.020;23.094;2023-05-19T19:03:53;14.48;;;8.52;;
22754;SDS011;11544;42.020;23.094;2023-05-19T19:06:34;11.00;;;7.85;;
22754;SDS011;11544;42.020;23.094;2023-05-19T19:09:02;11.90;;;7.50;;
22754;SDS011;11544;42.020;23.094;2023-05-19T19:11:32;8.48;;;6.68;;
22754;SDS011;11544;42.020;23.094;2023-05-19T19:14:06;9.75;;;7.10;;
22754;SDS011;11544;42.020;23.094;2023-05-19T19:16:51;13.57;;;7.35;;
22754;SDS011;11544;42.020;23.094;2023-05-19T19:19:21;13.15;;;7.88;;
22754;SDS011;11544;42.020;23.094;2023-05-19T19:21:49;13.82;;;7.50;;
22754;SDS011;11544;42.020;23.094;2023-05-19T19:24:28;11.07;;;7.55;;
22754;SDS011;11544;42.020;23.094;2023-05-19T19:27:03;9.43;;;7.28;;
22754;SDS011;11544;42.020;23.094;2023-05-19T19:29:34;12.23;;;7.75;;
22754;SDS011;11544;42.020;23.094;2023-05-19T19:32:04;12.88;;;8.00;;
22754;SDS011;11544;42.020;23.094;2023-05-19T19:34:41;11.13;;;6.72;;
22754;SDS011;11544;42.020;23.094;2023-05-19T19:37:12;11.32;;;7.50;;
22754;SDS011;11544;42.020;23.094;2023-05-19T19:40:02;13.70;;;6.30;;
22754;SDS011;11544;42.020;23.094;2023-05-19T19:42:44;9.98;;;7.18;;
22754;SDS011;11544;42.020;23.094;2023-05-19T19:45:16;12.10;;;7.28;;
22754;SDS011;11544;42.020;23.094;2023-05-19T19:47:45;8.73;;;6.25;;
22754;SDS011;11544;42.020;23.094;2023-05-19T19:50:12;10.93;;;6.90;;
22754;SDS011;11544;42.020;23.094;2023-05-19T19:52:45;11.68;;;6.93;;
22754;SDS011;11544;42.020;23.094;2023-05-19T20:15:17;9.95;;;5.97;;
22754;SDS011;11544;42.020;23.094;2023-05-19T20:17:45;11.10;;;7.22;;
22754;SDS011;11544;42.020;23.094;2023-05-19T20:20:14;9.18;;;6.60;;
22754;SDS011;11544;42.020;23.094;2023-05-19T20:22:42;8.48;;;6.20;;
22754;SDS011;11544;42.020;23.094;2023-05-19T20:25:11;9.25;;;7.32;;
22754;SDS011;11544;42.020;23.094;2023-05-19T20:27:38;11.68;;;6.65;;
22754;SDS011;11544;42.020;23.094;2023-05-19T20:30:06;13.30;;;6.97;;
22754;SDS011;11544;42.020;23.094;2023-05-19T20:32:36;12.57;;;6.53;;
22754;SDS011;11544;42.020;23.094;2023-05-19T20:35:04;9.85;;;7.35;;